Time;durP1;ratioP1;P1;durP2;ratioP2;P2;SDS_P1;SDS_P2;PMS_P1;PMS_P2;Temp;Humidity;BMP_temperature;BMP_pressure;BME280_temperature;BME280_humidity;BME280_pressure;Samples;Min_cycle;Max_cycle;Signal;HPM_P1;HPM_P2
2022/05/24 00:00:32;;;;;;;2.72;0.68;;;11.80;96.30;;;;;;5007445;28;20030;-57
2022/05/24 00:02:58;;;;;;;1.23;0.40;;;11.70;96.60;;;;;;5009012;28;20018;-58
2022/05/24 00:05:26;;;;;;;0.68;0.32;;;11.80;96.50;;;;;;5008074;28;20026;-58
2022/05/24 00:07:52;;;;;;;0.52;0.40;;;11.70;96.70;;;;;;5006559;28;20123;-58
2022/05/24 00:10:23;;;;;;;1.30;0.68;;;11.60;97.10;;;;;;5003008;28;20037;-58
2022/05/24 00:12:49;;;;;;;0.80;0.40;;;11.60;96.80;;;;;;5001895;28;20048;-58
2022/05/24 00:15:22;;;;;;;0.75;0.32;;;11.60;96.70;;;;;;5009436;28;20117;-58
2022/05/24 00:17:55;;;;;;;2.25;0.50;;;11.50;96.80;;;;;;5007941;28;20394;-59
2022/05/24 00:20:25;;;;;;;0.77;0.40;;;11.50;96.60;;;;;;5006418;28;20026;-58
2022/05/24 00:22:51;;;;;;;2.05;0.88;;;11.50;96.40;;;;;;5000468;28;20048;-59
2022/05/24 00:25:18;;;;;;;5.32;0.50;;;11.40;96.40;;;;;;5008750;28;20394;-58
2022/05/24 00:27:45;;;;;;;0.85;0.30;;;11.30;96.80;;;;;;4996645;28;20033;-58
2022/05/24 00:30:11;;;;;;;1.15;0.40;;;11.30;96.40;;;;;;5007690;28;20033;-59
2022/05/24 00:32:37;;;;;;;1.15;0.45;;;11.30;96.60;;;;;;5007194;28;20034;-58
2022/05/24 00:35:03;;;;;;;0.60;0.22;;;11.30;96.20;;;;;;5008567;28;20022;-59
2022/05/24 00:37:29;;;;;;;1.52;0.38;;;11.30;96.20;;;;;;5006900;28;20390;-58
2022/05/24 00:39:55;;;;;;;0.63;0.20;;;11.20;95.70;;;;;;4996986;28;20545;-57
2022/05/24 00:42:28;;;;;;;1.98;0.30;;;11.20;96.10;;;;;;5003001;28;20116;-58
2022/05/24 00:45:28;;;;;;;0.52;0.30;;;11.10;96.00;;;;;;4994277;28;20026;-58
2022/05/24 00:48:00;;;;;;;0.52;0.35;;;11.20;96.60;;;;;;4995968;28;20046;-58
2022/05/24 00:50:31;;;;;;;1.63;0.43;;;11.20;97.00;;;;;;5003560;28;20033;-58
2022/05/24 00:53:06;;;;;;;0.40;0.20;;;11.20;96.80;;;;;;5001441;28;20038;-58
2022/05/24 00:55:47;;;;;;;0.30;0.25;;;11.20;97.00;;;;;;4996788;28;20362;-59
2022/05/24 00:58:23;;;;;;;0.50;0.20;;;11.20;96.40;;;;;;5007981;28;20034;-59
2022/05/24 01:00:49;;;;;;;0.80;0.30;;;11.00;97.00;;;;;;5007327;28;20500;-59
2022/05/24 01:03:15;;;;;;;2.03;0.22;;;10.80;97.70;;;;;;5011243;28;20050;-57
2022/05/24 01:05:43;;;;;;;0.57;0.20;;;10.80;97.70;;;;;;5010509;28;20037;-59
2022/05/24 01:08:10;;;;;;;0.43;0.10;;;10.70;97.80;;;;;;5012191;28;20092;-58
2022/05/24 01:10:42;;;;;;;1.05;0.10;;;10.60;98.20;;;;;;5002133;28;20080;-58
2022/05/24 01:13:13;;;;;;;4.45;0.20;;;10.50;99.00;;;;;;5003554;28;20414;-58
2022/05/24 01:15:40;;;;;;;0.40;0.10;;;10.40;98.40;;;;;;5002206;28;20036;-58
2022/05/24 01:18:06;;;;;;;0.75;0.30;;;10.30;98.90;;;;;;5012136;28;20033;-58
2022/05/24 01:20:32;;;;;;;0.95;0.30;;;10.30;99.30;;;;;;5009294;28;20022;-58
2022/05/24 01:23:15;;;;;;;0.85;0.20;;;10.20;99.80;;;;;;5004245;28;20026;-58
2022/05/24 01:25:48;;;;;;;0.50;0.20;;;10.10;99.60;;;;;;5006405;28;20030;-58
2022/05/24 01:28:38;;;;;;;0.15;0.10;;;10.00;99.80;;;;;;5004917;28;20038;-58
2022/05/24 01:31:05;;;;;;;0.40;0.13;;;10.10;99.80;;;;;;5012352;28;20042;-59
2022/05/24 01:36:18;;;;;;;2.33;0.40;;;10.10;99.90;;;;;;4997050;28;20084;-58
2022/05/24 01:38:51;;;;;;;3.35;0.50;;;10.10;99.90;;;;;;5010759;28;20022;-59
2022/05/24 01:41:23;;;;;;;1.13;0.20;;;10.10;99.80;;;;;;5004525;28;20026;-58
2022/05/24 01:43:51;;;;;;;0.32;0.30;;;10.10;99.60;;;;;;5012391;28;20128;-59
2022/05/24 01:46:21;;;;;;;0.43;0.10;;;10.10;99.70;;;;;;5012277;28;20022;-57
2022/05/24 01:48:57;;;;;;;0.20;0.20;;;10.20;99.90;;;;;;5006463;28;20128;-58
2022/05/24 01:51:29;;;;;;;0.10;0.10;;;10.20;99.30;;;;;;5010375;28;20043;-56
2022/05/24 01:53:58;;;;;;;1.02;0.22;;;10.30;99.20;;;;;;5011755;28;20036;-57
2022/05/24 01:56:43;;;;;;;2.58;0.30;;;10.30;98.80;;;;;;5009947;28;20034;-59
2022/05/24 01:59:09;;;;;;;1.20;0.10;;;10.30;99.10;;;;;;5011279;28;20026;-59
2022/05/24 02:01:52;;;;;;;0.20;0.20;;;10.30;98.90;;;;;;5010283;28;20069;-58
2022/05/24 02:04:19;;;;;;;0.15;0.00;;;10.30;98.70;;;;;;5005991;28;20528;-61
2022/05/24 02:06:56;;;;;;;0.20;0.20;;;10.20;98.40;;;;;;5009953;28;20022;-59
2022/05/24 02:09:22;;;;;;;0.20;0.17;;;10.10;98.70;;;;;;5005387;28;20397;-58
2022/05/24 02:11:47;;;;;;;0.20;0.20;;;10.20;98.80;;;;;;5011340;28;20478;-59
2022/05/24 02:14:16;;;;;;;0.50;0.20;;;10.30;98.30;;;;;;5010887;28;20367;-59
2022/05/24 02:16:49;;;;;;;0.30;0.10;;;10.40;98.00;;;;;;5009774;28;20038;-59
2022/05/24 02:19:16;;;;;;;0.85;0.20;;;10.40;97.80;;;;;;5010334;28;20078;-58
2022/05/24 02:21:45;;;;;;;2.17;0.30;;;10.40;98.10;;;;;;5009998;28;20121;-61
2022/05/24 02:24:20;;;;;;;0.30;0.10;;;10.50;97.70;;;;;;5010805;28;20022;-59
2022/05/24 02:26:48;;;;;;;0.17;0.10;;;10.50;97.30;;;;;;5005978;28;20485;-58
2022/05/24 02:29:15;;;;;;;0.75;0.20;;;10.50;97.80;;;;;;5010542;28;20034;-58
2022/05/24 02:31:42;;;;;;;2.55;0.13;;;10.40;97.70;;;;;;5002958;28;20049;-58
2022/05/24 02:34:08;;;;;;;2.63;0.20;;;10.50;97.60;;;;;;5010639;28;20025;-59
2022/05/24 02:36:34;;;;;;;1.58;0.30;;;10.50;97.30;;;;;;5009477;28;20029;-59
2022/05/24 02:39:00;;;;;;;0.28;0.17;;;10.40;97.60;;;;;;5004015;28;20033;-61
2022/05/24 02:41:28;;;;;;;1.38;0.10;;;10.40;97.50;;;;;;5008693;28;20149;-58
2022/05/24 02:43:56;;;;;;;0.10;0.10;;;10.50;98.00;;;;;;5011059;28;20033;-58
2022/05/24 02:46:23;;;;;;;0.95;0.30;;;10.50;97.70;;;;;;5009392;28;20398;-59
2022/05/24 02:48:48;;;;;;;0.28;0.20;;;10.40;97.40;;;;;;5010958;28;20052;-58
2022/05/24 02:51:16;;;;;;;0.10;0.10;;;10.50;97.60;;;;;;5010946;28;20026;-58
2022/05/24 02:53:43;;;;;;;1.60;0.10;;;10.50;97.40;;;;;;5006345;28;20128;-58
2022/05/24 02:56:09;;;;;;;0.40;0.20;;;10.60;97.30;;;;;;5010915;28;20363;-58
2022/05/24 02:58:36;;;;;;;0.40;0.20;;;10.60;97.50;;;;;;5008414;28;20125;-58
2022/05/24 03:01:02;;;;;;;0.30;0.13;;;10.60;97.30;;;;;;5009208;28;20605;-58
2022/05/24 03:03:27;;;;;;;0.38;0.20;;;10.50;97.50;;;;;;5008330;28;20034;-57
2022/05/24 03:05:53;;;;;;;0.20;0.10;;;10.50;97.70;;;;;;5010519;28;20460;-57
2022/05/24 03:11:05;;;;;;;1.23;0.22;;;10.50;97.80;;;;;;5004310;28;20121;-58
2022/05/24 03:16:16;;;;;;;0.45;0.30;;;10.50;98.30;;;;;;5006259;28;20045;-58
2022/05/24 03:18:42;;;;;;;0.22;0.22;;;10.50;98.10;;;;;;5007795;28;20375;-58
2022/05/24 03:21:09;;;;;;;0.52;0.35;;;10.50;98.50;;;;;;5010717;28;20034;-58
2022/05/24 03:23:35;;;;;;;1.08;0.30;;;10.50;98.40;;;;;;5008566;28;20112;-58
2022/05/24 03:26:02;;;;;;;0.55;0.40;;;10.50;98.40;;;;;;5010598;28;20117;-59
2022/05/24 03:28:28;;;;;;;4.72;0.30;;;10.50;98.60;;;;;;5004337;28;20042;-58
2022/05/24 03:30:54;;;;;;;0.93;0.50;;;10.50;98.40;;;;;;5010239;28;20050;-58
2022/05/24 03:33:21;;;;;;;1.48;0.32;;;10.50;98.40;;;;;;5009883;28;20433;-58
2022/05/24 03:35:47;;;;;;;0.38;0.22;;;10.50;98.40;;;;;;5010142;28;20424;-58
2022/05/24 03:38:13;;;;;;;0.77;0.45;;;10.40;98.60;;;;;;5009497;28;20129;-59
2022/05/24 03:40:38;;;;;;;0.98;0.43;;;10.30;99.10;;;;;;5008604;28;20030;-59
2022/05/24 03:43:15;;;;;;;1.30;0.38;;;10.20;99.50;;;;;;5005781;28;20083;-58
2022/05/24 03:45:41;;;;;;;0.50;0.40;;;10.20;99.60;;;;;;5008546;28;20447;-58
2022/05/24 03:48:08;;;;;;;3.15;0.50;;;10.10;99.90;;;;;;5008186;28;20087;-57
2022/05/24 03:50:33;;;;;;;1.15;0.70;;;10.00;99.90;;;;;;5007804;28;20500;-59
2022/05/24 03:52:59;;;;;;;4.22;0.63;;;10.00;99.90;;;;;;5010185;28;20033;-58
2022/05/24 03:55:25;;;;;;;8.05;0.80;;;9.90;99.90;;;;;;5008255;28;20038;-59
2022/05/24 03:58:00;;;;;;;1.83;0.70;;;9.90;99.90;;;;;;5005539;28;20034;-58
2022/05/24 04:00:30;;;;;;;1.33;0.50;;;9.90;99.90;;;;;;5008436;28;20048;-58
2022/05/24 04:02:57;;;;;;;1.20;0.50;;;9.80;99.90;;;;;;5008834;28;20034;-58
2022/05/24 04:05:22;;;;;;;0.55;0.55;;;9.80;99.90;;;;;;5008169;28;20037;-59
2022/05/24 04:07:49;;;;;;;0.57;0.50;;;9.80;99.90;;;;;;5009897;28;20570;-58
2022/05/24 04:10:16;;;;;;;9.90;2.03;;;9.80;99.90;;;;;;5010093;28;20076;-58
2022/05/24 04:12:42;;;;;;;0.82;0.40;;;9.90;99.90;;;;;;5007956;28;20026;-58
2022/05/24 04:15:09;;;;;;;2.53;0.85;;;9.90;99.90;;;;;;5008795;28;20482;-58
2022/05/24 04:17:35;;;;;;;5.38;0.57;;;10.00;99.90;;;;;;5008067;28;20401;-58
2022/05/24 04:20:00;;;;;;;5.80;0.98;;;10.00;99.90;;;;;;5009937;28;20032;-58
2022/05/24 04:22:26;;;;;;;7.32;1.15;;;10.00;99.90;;;;;;5008090;28;20045;-58
2022/05/24 04:24:52;;;;;;;0.75;0.70;;;10.00;99.90;;;;;;5008942;28;20068;-58
2022/05/24 04:27:17;;;;;;;3.63;1.10;;;10.00;99.90;;;;;;4993491;28;20042;-58
2022/05/24 04:29:43;;;;;;;0.90;0.52;;;10.00;99.90;;;;;;5007803;28;20033;-58
2022/05/24 04:32:10;;;;;;;3.17;0.68;;;10.00;99.90;;;;;;5009462;28;20154;-58
2022/05/24 04:34:36;;;;;;;2.35;0.70;;;10.00;99.90;;;;;;4999010;28;20045;-58
2022/05/24 04:37:06;;;;;;;2.30;0.65;;;10.10;99.90;;;;;;5012154;28;20030;-58
2022/05/24 04:39:32;;;;;;;2.15;1.17;;;10.10;99.90;;;;;;5011533;28;20084;-58
2022/05/24 04:45:06;;;;;;;4.72;0.93;;;10.20;99.90;;;;;;4988410;28;20117;-59
2022/05/24 04:47:33;;;;;;;3.42;1.10;;;10.20;99.90;;;;;;4989870;28;20476;-57
2022/05/24 04:50:01;;;;;;;1.38;0.95;;;10.20;99.90;;;;;;4991637;28;20037;-57
2022/05/24 04:52:31;;;;;;;3.65;1.35;;;10.20;99.90;;;;;;4989880;28;20608;-58
2022/05/24 04:54:57;;;;;;;1.90;0.85;;;10.30;99.90;;;;;;4990988;28;20030;-58
2022/05/24 04:57:23;;;;;;;5.18;1.35;;;10.30;99.90;;;;;;4983805;28;20519;-58
2022/05/24 04:59:49;;;;;;;5.63;1.67;;;10.30;99.90;;;;;;4990183;28;20045;-59
2022/05/24 05:02:15;;;;;;;4.25;1.20;;;10.40;99.90;;;;;;4991001;28;20027;-57
2022/05/24 05:04:41;;;;;;;2.50;1.30;;;10.40;99.90;;;;;;4989146;28;20041;-58
2022/05/24 05:07:07;;;;;;;2.58;0.73;;;10.40;99.90;;;;;;4990935;28;20418;-58
2022/05/24 05:09:38;;;;;;;1.58;1.00;;;10.40;99.90;;;;;;4988955;28;20045;-58
2022/05/24 05:12:09;;;;;;;2.95;1.20;;;10.40;99.90;;;;;;4990672;28;20142;-58
2022/05/24 05:14:36;;;;;;;11.27;2.30;;;10.40;99.90;;;;;;4977928;28;20042;-59
2022/05/24 05:17:02;;;;;;;3.47;1.48;;;10.40;99.90;;;;;;4989947;28;20102;-58
2022/05/24 05:19:28;;;;;;;2.58;1.15;;;10.40;99.90;;;;;;5004000;28;20038;-58
2022/05/24 05:21:54;;;;;;;6.05;1.45;;;10.40;99.90;;;;;;5012760;28;20041;-58
2022/05/24 05:24:21;;;;;;;5.15;1.40;;;10.40;99.90;;;;;;5012663;28;20061;-57
2022/05/24 05:26:47;;;;;;;5.05;1.30;;;10.40;99.90;;;;;;5006700;28;20033;-59
2022/05/24 05:29:12;;;;;;;3.58;1.50;;;10.40;99.90;;;;;;5012087;28;20045;-58
2022/05/24 05:31:39;;;;;;;4.90;1.33;;;10.50;99.90;;;;;;5009290;28;20049;-58
2022/05/24 05:34:05;;;;;;;4.35;1.50;;;10.60;99.90;;;;;;5012156;28;20091;-57
2022/05/24 05:36:32;;;;;;;8.13;1.35;;;10.60;99.90;;;;;;5010643;28;20417;-58
2022/05/24 05:38:58;;;;;;;7.13;1.65;;;10.70;99.90;;;;;;5012373;28;20034;-57
2022/05/24 05:41:28;;;;;;;2.13;1.10;;;10.80;99.90;;;;;;5007858;28;20028;-59
2022/05/24 05:43:54;;;;;;;5.45;1.30;;;10.90;99.90;;;;;;5011259;28;20033;-58
2022/05/24 05:46:20;;;;;;;3.17;1.20;;;11.00;99.90;;;;;;5012088;28;20120;-59
2022/05/24 05:48:46;;;;;;;3.38;0.95;;;11.10;99.90;;;;;;5009814;28;20483;-57
2022/05/24 05:51:14;;;;;;;4.05;1.35;;;11.20;99.90;;;;;;5011054;28;20454;-57
2022/05/24 05:53:40;;;;;;;4.82;1.20;;;11.40;99.90;;;;;;5010329;28;20029;-58
2022/05/24 05:56:12;;;;;;;1.38;0.75;;;11.60;99.20;;;;;;5003525;28;20022;-58
2022/05/24 05:58:38;;;;;;;3.45;1.13;;;11.80;98.90;;;;;;5009168;28;20037;-59
2022/05/24 06:01:03;;;;;;;3.53;0.82;;;12.00;98.60;;;;;;5011822;28;20033;-59
2022/05/24 06:03:30;;;;;;;5.85;1.20;;;12.20;98.00;;;;;;5007487;28;21180;-58
2022/05/24 06:06:00;;;;;;;6.88;1.20;;;12.30;97.50;;;;;;5009539;28;20037;-58
2022/05/24 06:08:26;;;;;;;2.42;0.40;;;12.50;97.30;;;;;;5009714;28;20394;-60
2022/05/24 06:10:53;;;;;;;1.05;0.60;;;12.50;96.20;;;;;;5011400;28;20026;-59
2022/05/24 06:13:19;;;;;;;2.42;0.60;;;12.60;95.40;;;;;;5010146;28;20034;-58
2022/05/24 06:15:48;;;;;;;2.05;0.70;;;12.50;95.10;;;;;;5007938;28;20026;-58
2022/05/24 06:18:14;;;;;;;3.92;0.60;;;12.30;95.80;;;;;;5009038;28;20408;-57
2022/05/24 06:20:40;;;;;;;2.10;0.68;;;12.20;95.50;;;;;;5011426;28;20047;-57
2022/05/24 06:23:06;;;;;;;7.00;1.58;;;12.40;95.80;;;;;;5010968;28;20113;-59
2022/05/24 06:25:32;;;;;;;3.35;0.90;;;12.40;95.50;;;;;;5009552;28;20026;-58
2022/05/24 06:27:59;;;;;;;1.55;0.60;;;12.50;95.60;;;;;;5009894;28;20375;-58
2022/05/24 06:30:26;;;;;;;3.35;0.90;;;12.50;95.10;;;;;;5009493;28;20046;-59
2022/05/24 06:32:52;;;;;;;3.90;0.60;;;12.60;94.80;;;;;;5011119;28;20030;-58
2022/05/24 06:35:20;;;;;;;1.40;0.30;;;12.60;95.20;;;;;;5011056;28;20065;-58
2022/05/24 06:37:48;;;;;;;1.30;0.50;;;12.50;94.40;;;;;;5008389;28;20026;-58
2022/05/24 06:40:16;;;;;;;0.57;0.40;;;12.60;94.60;;;;;;5010845;28;20033;-59
2022/05/24 06:42:42;;;;;;;1.23;0.40;;;12.50;93.80;;;;;;5009051;28;20069;-59
2022/05/24 06:45:11;;;;;;;2.67;0.50;;;12.30;93.50;;;;;;5010451;28;20036;-58
2022/05/24 06:47:37;;;;;;;0.80;0.47;;;12.10;94.10;;;;;;5008295;28;20049;-58
2022/05/24 06:50:04;;;;;;;2.85;0.60;;;12.10;94.60;;;;;;5010547;28;20025;-58
2022/05/24 06:52:31;;;;;;;1.20;0.73;;;12.30;94.40;;;;;;5000080;28;20038;-58
2022/05/24 06:54:56;;;;;;;3.10;1.90;;;12.20;94.30;;;;;;5010026;28;20508;-57
2022/05/24 06:57:22;;;;;;;1.67;0.90;;;12.40;94.50;;;;;;5008089;28;20030;-57
2022/05/24 07:02:34;;;;;;;3.03;0.90;;;12.80;94.10;;;;;;4996890;28;20084;-58
2022/05/24 07:05:07;;;;;;;1.95;0.80;;;13.10;93.40;;;;;;5016085;28;20416;-59
2022/05/24 07:07:35;;;;;;;1.20;0.68;;;13.40;92.50;;;;;;5015224;28;21226;-59
2022/05/24 07:10:02;;;;;;;1.08;0.98;;;13.30;91.60;;;;;;5010519;28;20026;-58
2022/05/24 07:12:28;;;;;;;2.88;1.20;;;13.10;91.60;;;;;;5008164;28;20113;-58
2022/05/24 07:14:54;;;;;;;1.98;0.90;;;13.30;92.60;;;;;;5010597;28;20072;-58
2022/05/24 07:17:21;;;;;;;3.70;1.10;;;13.60;91.20;;;;;;5009558;28;20018;-58
2022/05/24 07:19:47;;;;;;;4.10;1.05;;;13.60;90.80;;;;;;5008955;28;20034;-57
2022/05/24 07:22:14;;;;;;;3.42;1.20;;;13.80;90.90;;;;;;5011317;28;20034;-58
2022/05/24 07:24:40;;;;;;;3.60;0.95;;;13.90;90.60;;;;;;5012274;28;20040;-58
2022/05/24 07:27:10;;;;;;;2.50;0.80;;;13.90;89.60;;;;;;5001971;28;20123;-58
2022/05/24 07:29:37;;;;;;;1.10;0.95;;;13.90;89.40;;;;;;4998078;28;20029;-58
2022/05/24 07:32:04;;;;;;;0.98;0.85;;;14.00;88.50;;;;;;5009654;28;20538;-59
2022/05/24 07:34:31;;;;;;;3.15;0.80;;;14.00;89.50;;;;;;5005564;28;20033;-59
2022/05/24 07:36:57;;;;;;;4.20;1.05;;;14.00;88.90;;;;;;5015094;28;20161;-59
2022/05/24 07:39:23;;;;;;;2.80;0.90;;;13.80;90.00;;;;;;5007760;28;20526;-58
2022/05/24 07:47:18;;;;;;;3.53;1.02;;;14.00;88.80;;;;;;5021004;28;20060;-57
2022/05/24 07:49:44;;;;;;;3.33;0.70;;;14.00;89.80;;;;;;5009171;28;20505;-58
2022/05/24 07:52:10;;;;;;;2.00;0.82;;;14.00;89.10;;;;;;5015484;28;20047;-58
2022/05/24 07:54:36;;;;;;;3.03;1.20;;;13.80;88.80;;;;;;5017436;28;20029;-58
2022/05/24 07:57:03;;;;;;;2.65;1.15;;;13.70;90.00;;;;;;5012260;28;20109;-59
2022/05/24 07:59:29;;;;;;;1.27;0.50;;;13.80;89.30;;;;;;5009061;28;20034;-59
2022/05/24 08:01:55;;;;;;;5.38;0.88;;;14.00;88.60;;;;;;5025398;28;20083;-58
2022/05/24 08:04:21;;;;;;;3.40;1.58;;;13.90;87.90;;;;;;5019879;28;20030;-59
2022/05/24 08:06:47;;;;;;;3.90;0.75;;;14.30;87.70;;;;;;5010602;28;20064;-58
2022/05/24 08:09:13;;;;;;;2.55;1.00;;;14.40;86.60;;;;;;5009857;28;20054;-58
2022/05/24 08:11:39;;;;;;;0.98;0.63;;;14.60;85.70;;;;;;5011395;28;20041;-58
2022/05/24 08:14:06;;;;;;;4.00;0.90;;;14.50;84.50;;;;;;5013046;28;20026;-59
2022/05/24 08:16:32;;;;;;;2.85;1.23;;;14.50;86.50;;;;;;5011293;28;20505;-58
2022/05/24 08:18:59;;;;;;;5.50;1.00;;;14.70;86.00;;;;;;5022692;28;20037;-58
2022/05/24 08:21:27;;;;;;;1.42;0.55;;;14.50;85.00;;;;;;5019536;28;20112;-58
2022/05/24 08:23:54;;;;;;;0.60;0.55;;;14.40;84.60;;;;;;5013412;28;20045;-57
2022/05/24 08:26:19;;;;;;;1.27;0.65;;;14.40;84.70;;;;;;5013166;28;20489;-58
2022/05/24 08:28:47;;;;;;;0.95;0.70;;;14.50;85.10;;;;;;5012986;28;20038;-58
2022/05/24 08:31:14;;;;;;;2.63;0.70;;;14.10;86.50;;;;;;5014815;28;20543;-58
2022/05/24 08:33:41;;;;;;;3.42;0.90;;;14.20;85.90;;;;;;5012444;28;20037;-58
2022/05/24 08:36:07;;;;;;;2.28;0.75;;;14.30;86.00;;;;;;5003796;28;20461;-58
2022/05/24 08:38:37;;;;;;;1.25;0.47;;;14.50;84.20;;;;;;5005822;28;20532;-58
2022/05/24 08:41:13;;;;;;;0.50;0.25;;;14.80;81.80;;;;;;5006277;28;20026;-57
2022/05/24 08:43:42;;;;;;;3.78;0.63;;;14.80;79.90;;;;;;5002293;28;20034;-58
2022/05/24 08:49:16;;;;;;;0.47;0.30;;;15.30;78.00;;;;;;5008204;28;20179;-57
2022/05/24 08:51:55;;;;;;;1.65;0.70;;;15.40;78.60;;;;;;5002129;28;20130;-57
2022/05/24 08:54:28;;;;;;;2.78;0.47;;;15.60;78.10;;;;;;5006646;28;20488;-56
2022/05/24 08:57:05;;;;;;;2.03;0.77;;;15.90;76.00;;;;;;5005942;28;20075;-57
2022/05/24 08:59:38;;;;;;;2.78;0.80;;;15.90;75.60;;;;;;5009314;28;20167;-58
2022/05/24 09:02:07;;;;;;;0.47;0.40;;;15.70;77.50;;;;;;5001824;28;20087;-57
2022/05/24 09:04:32;;;;;;;1.75;0.45;;;15.80;76.10;;;;;;5001097;28;20037;-57
2022/05/24 09:07:32;;;;;;;0.30;0.30;;;15.80;76.90;;;;;;5013580;28;20025;-58
2022/05/24 09:10:06;;;;;;;2.17;0.52;;;15.90;74.50;;;;;;5012369;28;20034;-57
2022/05/24 09:12:44;;;;;;;0.20;0.20;;;15.90;72.20;;;;;;5004789;28;20033;-56
2022/05/24 09:15:15;;;;;;;0.20;0.10;;;16.00;73.50;;;;;;5002942;28;20042;-57
2022/05/24 09:17:48;;;;;;;2.95;0.45;;;16.20;71.80;;;;;;4999305;28;20033;-57
2022/05/24 09:20:36;;;;;;;0.30;0.20;;;15.90;71.70;;;;;;5000014;28;20129;-58
2022/05/24 09:23:23;;;;;;;1.77;0.45;;;15.40;75.00;;;;;;5003240;28;20030;-57
2022/05/24 09:26:03;;;;;;;0.60;0.40;;;15.20;76.90;;;;;;5003522;28;20444;-57
2022/05/24 09:28:44;;;;;;;1.05;0.50;;;14.90;79.80;;;;;;5000474;28;20490;-57
2022/05/24 09:31:19;;;;;;;1.80;0.40;;;14.80;77.70;;;;;;5013769;28;20815;-57
2022/05/24 09:33:45;;;;;;;0.13;0.13;;;14.80;78.10;;;;;;5013212;28;20080;-57
2022/05/24 09:36:35;;;;;;;1.38;0.50;;;15.10;78.10;;;;;;5001136;28;20034;-58
2022/05/24 09:39:06;;;;;;;0.85;0.40;;;15.40;79.30;;;;;;5008575;28;20083;-56
2022/05/24 09:41:32;;;;;;;0.52;0.30;;;15.60;76.20;;;;;;5004323;28;20038;-57
2022/05/24 09:44:02;;;;;;;0.85;0.10;;;15.50;72.80;;;;;;5002448;28;20033;-58
2022/05/24 09:46:30;;;;;;;0.30;0.10;;;15.30;70.80;;;;;;5006818;28;20026;-58
2022/05/24 09:48:58;;;;;;;0.22;0.20;;;15.20;72.90;;;;;;5008469;28;20107;-57
2022/05/24 09:51:42;;;;;;;1.45;0.70;;;15.40;72.00;;;;;;5015584;28;20060;-58
2022/05/24 09:54:28;;;;;;;2.05;0.73;;;15.80;69.40;;;;;;5012346;28;20033;-58
2022/05/24 09:57:09;;;;;;;3.67;0.40;;;16.10;66.80;;;;;;5014640;28;20030;-58
2022/05/24 09:59:39;;;;;;;0.50;0.30;;;16.80;65.20;;;;;;5008182;28;20033;-58
2022/05/24 10:02:28;;;;;;;1.05;0.35;;;17.10;62.70;;;;;;5002818;28;20381;-58
2022/05/24 10:04:54;;;;;;;3.03;0.93;;;17.10;64.50;;;;;;5003946;28;20096;-58
2022/05/24 10:07:24;;;;;;;3.78;1.63;;;16.80;72.70;;;;;;5009591;28;20505;-57
2022/05/24 10:10:07;;;;;;;2.85;0.65;;;16.40;75.20;;;;;;5002776;28;20118;-57
2022/05/24 10:12:48;;;;;;;1.70;0.70;;;16.60;75.20;;;;;;4998854;28;20030;-58
2022/05/24 10:15:41;;;;;;;0.95;0.60;;;16.70;73.60;;;;;;4997934;28;20041;-59
2022/05/24 10:18:30;;;;;;;5.28;1.38;;;16.30;71.30;;;;;;5007410;28;20038;-59
2022/05/24 10:21:14;;;;;;;2.03;0.90;;;16.10;74.00;;;;;;4994821;28;20069;-59
2022/05/24 10:24:10;;;;;;;1.88;0.90;;;16.60;74.80;;;;;;4994164;28;20389;-58
2022/05/24 10:26:56;;;;;;;0.85;0.55;;;17.00;72.50;;;;;;5002245;28;20026;-56
2022/05/24 10:29:49;;;;;;;1.77;0.90;;;17.00;70.10;;;;;;4993282;28;20423;-57
2022/05/24 10:38:17;;;;;;;1.65;0.80;;;16.70;70.80;;;;;;4999491;28;20050;-57
2022/05/24 10:38:17;;;;;;;;;;;17.20;69.70;;;;;;5012334;28;20084;-58
2022/05/24 10:41:12;;;;;;;4.82;1.00;;;17.50;68.70;;;;;;5016958;28;19918;-57
2022/05/24 10:44:13;;;;;;;1.02;0.70;;;17.70;68.90;;;;;;4997027;28;20324;-58
2022/05/24 10:46:48;;;;;;;0.75;0.50;;;17.80;67.20;;;;;;5005233;28;20099;-58
2022/05/24 10:49:26;;;;;;;1.30;0.73;;;17.10;70.10;;;;;;5003183;28;20124;-58
2022/05/24 10:51:54;;;;;;;2.40;0.80;;;16.60;71.00;;;;;;5004561;28;20031;-58
2022/05/24 10:54:52;;;;;;;4.82;0.95;;;16.40;72.30;;;;;;5009661;28;20493;-58
2022/05/24 10:57:38;;;;;;;1.38;0.60;;;16.70;74.60;;;;;;4994989;28;20034;-57
2022/05/24 11:00:13;;;;;;;3.15;0.57;;;16.60;73.00;;;;;;5007690;28;20040;-58
2022/05/24 11:03:08;;;;;;;2.58;1.10;;;16.60;73.10;;;;;;4993704;28;20811;-58
2022/05/24 11:05:41;;;;;;;2.58;0.60;;;16.10;79.40;;;;;;4992935;28;20496;-58
2022/05/24 11:08:28;;;;;;;2.33;0.93;;;16.00;82.60;;;;;;5008698;28;20052;-58
2022/05/24 11:10:57;;;;;;;5.85;1.40;;;15.40;88.30;;;;;;5004656;28;20040;-58
2022/05/24 11:13:47;;;;;;;2.20;0.60;;;15.10;91.20;;;;;;5005717;28;20045;-58
2022/05/24 11:16:21;;;;;;;1.45;0.52;;;15.10;89.40;;;;;;5004150;28;20521;-58
2022/05/24 11:18:47;;;;;;;1.77;0.70;;;15.20;87.00;;;;;;5004791;28;20038;-58
2022/05/24 11:21:21;;;;;;;2.42;0.40;;;15.50;88.50;;;;;;5007959;28;20084;-58
2022/05/24 11:23:50;;;;;;;5.28;0.60;;;16.50;83.60;;;;;;5002248;28;20026;-58
2022/05/24 11:26:21;;;;;;;2.88;0.30;;;17.60;80.10;;;;;;5000803;28;20544;-58
2022/05/24 11:28:58;;;;;;;2.08;0.30;;;17.60;74.50;;;;;;4997567;28;20128;-57
2022/05/24 11:31:40;;;;;;;3.33;0.70;;;17.90;72.20;;;;;;4994551;28;20053;-57
2022/05/24 11:34:29;;;;;;;2.08;0.80;;;17.60;73.90;;;;;;5004950;28;20105;-57
2022/05/24 11:37:00;;;;;;;2.53;0.70;;;18.20;71.90;;;;;;5000397;28;20062;-59
2022/05/24 11:39:34;;;;;;;1.40;0.52;;;17.60;71.60;;;;;;4994922;28;20053;-58
2022/05/24 11:42:21;;;;;;;1.63;0.50;;;17.30;74.60;;;;;;4996433;28;20030;-58
2022/05/24 11:44:48;;;;;;;4.13;0.70;;;16.50;74.30;;;;;;4997080;28;20029;-58
2022/05/24 11:47:46;;;;;;;5.97;0.77;;;16.00;79.50;;;;;;5006205;28;20030;-59
2022/05/24 11:50:55;;;;;;;3.35;0.82;;;15.60;86.60;;;;;;5004044;28;20030;-59
2022/05/24 11:53:34;;;;;;;10.13;0.90;;;15.00;90.70;;;;;;4985574;28;20089;-76
2022/05/24 11:56:12;;;;;;;13.75;1.73;;;14.10;92.60;;;;;;5007413;28;20037;-69
2022/05/24 11:58:42;;;;;;;5.32;0.75;;;13.50;94.50;;;;;;5005586;28;20052;-67
2022/05/24 12:01:09;;;;;;;6.45;1.30;;;13.00;94.90;;;;;;5007918;28;20434;-68
2022/05/24 12:10:21;;;;;;;4.30;0.60;;;11.10;99.90;;;;;;4978755;28;20102;-71
2022/05/24 12:12:53;;;;;;;5.18;1.33;;;10.80;99.90;;;;;;4986129;28;20038;-70
2022/05/24 12:15:29;;;;;;;5.82;1.58;;;10.80;99.90;;;;;;4989820;28;20120;-68
2022/05/24 12:17:57;;;;;;;13.88;2.15;;;10.80;99.90;;;;;;4984577;28;20066;-70
2022/05/24 12:20:35;;;;;;;10.43;2.17;;;11.00;99.90;;;;;;4968761;28;20112;-64
2022/05/24 12:23:06;;;;;;;6.82;2.28;;;11.10;99.90;;;;;;4980314;28;20034;-69
2022/05/24 12:25:58;;;;;;;3.25;1.05;;;11.00;99.90;;;;;;4984933;28;20034;-66
2022/05/24 12:28:34;;;;;;;2.13;0.95;;;11.00;99.90;;;;;;4992682;28;20401;-62
2022/05/24 12:31:02;;;;;;;4.15;1.17;;;10.90;99.90;;;;;;4986420;28;20081;-63
2022/05/24 12:33:37;;;;;;;2.28;1.20;;;10.90;99.90;;;;;;4987436;28;20043;-64
2022/05/24 12:36:05;;;;;;;6.10;2.13;;;11.00;99.90;;;;;;4986652;28;20031;-62
2022/05/24 12:38:33;;;;;;;2.95;1.33;;;11.10;99.90;;;;;;4983723;28;20041;-62
2022/05/24 12:41:25;;;;;;;9.13;2.05;;;11.20;99.90;;;;;;4990643;28;20034;-59
2022/05/24 12:44:01;;;;;;;2.05;1.27;;;11.30;99.90;;;;;;4993983;28;20041;-59
2022/05/24 12:46:31;;;;;;;7.63;1.42;;;11.40;99.90;;;;;;5004311;28;20022;-60
2022/05/24 12:49:09;;;;;;;7.88;1.27;;;11.50;99.90;;;;;;5009681;28;20404;-59
2022/05/24 12:51:37;;;;;;;4.07;1.55;;;11.50;99.90;;;;;;5005895;28;20030;-58
2022/05/24 12:54:35;;;;;;;5.18;1.05;;;11.60;99.90;;;;;;5008324;28;20513;-58
2022/05/24 12:57:01;;;;;;;2.45;0.93;;;11.60;99.90;;;;;;4992084;28;20042;-58
2022/05/24 12:59:40;;;;;;;6.97;1.70;;;11.60;99.90;;;;;;5008253;28;20141;-58
2022/05/24 13:02:19;;;;;;;4.53;1.73;;;11.60;99.90;;;;;;5009409;28;20069;-57
2022/05/24 13:04:46;;;;;;;3.97;1.20;;;11.70;99.90;;;;;;5004526;28;20060;-58
2022/05/24 13:07:45;;;;;;;5.70;1.70;;;11.70;99.90;;;;;;5006128;28;20033;-58
2022/05/24 13:10:22;;;;;;;6.55;1.50;;;11.70;99.90;;;;;;5002867;28;20041;-60
2022/05/24 13:13:06;;;;;;;9.88;3.22;;;11.80;99.90;;;;;;5007503;28;20393;-61
2022/05/24 13:15:49;;;;;;;5.88;1.63;;;11.90;99.90;;;;;;5012014;28;20527;-61
2022/05/24 13:18:27;;;;;;;1.48;0.98;;;12.10;99.90;;;;;;5009885;28;20041;-61
2022/05/24 13:20:54;;;;;;;11.82;3.65;;;12.20;99.90;;;;;;5008727;28;20025;-60
2022/05/24 13:23:25;;;;;;;10.57;1.25;;;12.30;99.90;;;;;;5010732;28;20026;-59
2022/05/24 13:25:54;;;;;;;4.70;0.90;;;12.50;99.90;;;;;;5015282;28;20042;-59
2022/05/24 13:28:38;;;;;;;6.65;2.00;;;12.80;99.90;;;;;;5005305;28;20124;-61
2022/05/24 13:34:25;;;;;;;8.05;1.48;;;13.40;99.90;;;;;;5000101;28;20076;-59
2022/05/24 13:36:58;;;;;;;12.95;1.60;;;13.50;99.90;;;;;;5012828;28;20042;-60
2022/05/24 13:39:47;;;;;;;5.60;1.20;;;13.60;99.90;;;;;;5007566;28;20065;-60
2022/05/24 13:42:24;;;;;;;3.33;0.88;;;13.70;99.90;;;;;;4998025;28;20121;-59
2022/05/24 13:45:15;;;;;;;7.10;1.85;;;13.70;99.20;;;;;;5002810;28;20069;-60